Time;durP1;ratioP1;P1;durP2;ratioP2;P2;SDS_P1;SDS_P2;PMS_P1;PMS_P2;Temp;Humidity;BMP_temperature;BMP_pressure;BME280_temperature;BME280_humidity;BME280_pressure;Samples;Min_cycle;Max_cycle;Signal;HPM_P1;HPM_P2
2022/07/15 00:00:11;;;;;;;5.60;3.60;;;21.40;49.80;;;;;;5086486;28;20185;-75
2022/07/15 00:02:38;;;;;;;6.87;3.87;;;21.40;50.10;;;;;;5082795;28;20210;-73
2022/07/15 00:05:05;;;;;;;7.63;3.60;;;21.40;50.30;;;;;;5080402;28;20472;-74
2022/07/15 00:07:31;;;;;;;5.37;3.93;;;21.40;50.10;;;;;;5086706;28;20509;-74
2022/07/15 00:10:14;;;;;;;6.73;3.40;;;21.30;50.50;;;;;;5067949;28;20443;-74
2022/07/15 00:12:51;;;;;;;9.30;3.70;;;21.30;50.50;;;;;;5086946;28;20418;-75
2022/07/15 00:15:20;;;;;;;13.13;4.27;;;21.30;50.90;;;;;;5073144;28;20440;-73
2022/07/15 00:17:46;;;;;;;8.63;3.50;;;21.30;50.70;;;;;;5086476;28;20534;-74
2022/07/15 00:20:13;;;;;;;6.50;3.43;;;21.20;51.00;;;;;;5086188;28;20509;-74
2022/07/15 00:22:40;;;;;;;4.93;3.73;;;21.20;51.20;;;;;;5088727;28;20916;-74
2022/07/15 00:25:06;;;;;;;5.10;3.43;;;21.10;51.70;;;;;;5086826;28;20501;-73
2022/07/15 00:27:31;;;;;;;5.97;3.37;;;21.20;51.60;;;;;;5083760;28;20837;-75
2022/07/15 00:29:57;;;;;;;6.73;3.60;;;21.20;51.70;;;;;;5081627;28;20993;-74
2022/07/15 00:32:23;;;;;;;6.10;3.67;;;21.20;51.80;;;;;;5086777;28;20237;-75
2022/07/15 00:34:50;;;;;;;5.40;3.40;;;21.20;52.10;;;;;;5080771;28;20669;-73
2022/07/15 00:37:16;;;;;;;6.17;3.60;;;21.10;52.10;;;;;;5088373;28;20185;-74
2022/07/15 00:39:43;;;;;;;4.77;3.30;;;20.90;52.20;;;;;;5085077;28;20941;-75
2022/07/15 00:42:11;;;;;;;4.00;3.47;;;20.80;53.40;;;;;;5084415;28;20903;-72
2022/07/15 00:44:37;;;;;;;6.03;3.77;;;20.80;53.20;;;;;;5078840;28;20512;-74
2022/07/15 00:47:03;;;;;;;4.50;3.53;;;20.70;54.10;;;;;;5088075;28;21059;-73
2022/07/15 00:49:29;;;;;;;6.70;3.83;;;20.40;54.60;;;;;;5084695;28;20501;-73
2022/07/15 00:51:55;;;;;;;7.97;4.23;;;20.50;54.80;;;;;;5088410;28;20272;-76
2022/07/15 00:54:26;;;;;;;8.90;4.53;;;20.50;55.00;;;;;;5078943;28;20267;-74
2022/07/15 00:56:54;;;;;;;6.37;4.30;;;20.30;55.60;;;;;;5091708;28;21372;-73
2022/07/15 00:59:22;;;;;;;7.33;4.00;;;20.20;55.80;;;;;;5087731;28;20419;-74
2022/07/15 01:01:50;;;;;;;8.03;3.43;;;20.30;55.80;;;;;;5085608;28;20569;-74
2022/07/15 01:04:17;;;;;;;6.33;3.70;;;20.30;55.70;;;;;;5082196;28;20460;-75
2022/07/15 01:06:43;;;;;;;6.07;3.50;;;20.20;56.00;;;;;;5087655;28;20449;-73
2022/07/15 01:09:09;;;;;;;6.10;3.50;;;20.20;56.20;;;;;;5087754;28;20411;-73
2022/07/15 01:11:36;;;;;;;5.60;3.77;;;20.20;56.20;;;;;;5088792;28;20179;-73
2022/07/15 01:14:02;;;;;;;5.73;3.43;;;20.20;56.40;;;;;;5081369;28;20465;-74
2022/07/15 01:16:28;;;;;;;4.83;2.90;;;20.00;56.60;;;;;;5090216;28;20425;-74
2022/07/15 01:18:54;;;;;;;4.60;3.00;;;20.00;56.90;;;;;;5071152;28;20432;-74
2022/07/15 01:21:20;;;;;;;5.40;3.37;;;20.00;57.00;;;;;;5072352;28;20459;-74
2022/07/15 01:23:46;;;;;;;6.07;3.00;;;19.90;57.30;;;;;;5077145;28;20316;-74
2022/07/15 01:26:12;;;;;;;5.63;3.20;;;19.90;57.60;;;;;;5085450;28;20411;-75
2022/07/15 01:28:39;;;;;;;5.03;3.37;;;19.80;57.80;;;;;;5069688;28;20183;-72
2022/07/15 01:31:05;;;;;;;7.30;4.00;;;19.60;58.40;;;;;;5085226;28;20786;-75
2022/07/15 01:33:32;;;;;;;7.57;4.10;;;19.70;58.40;;;;;;5087877;28;20449;-76
2022/07/15 01:35:59;;;;;;;5.93;3.40;;;19.60;58.50;;;;;;5076451;28;20534;-75
2022/07/15 01:38:26;;;;;;;5.87;3.50;;;19.60;58.80;;;;;;5086569;28;20940;-75
2022/07/15 01:40:52;;;;;;;4.80;3.40;;;19.50;59.20;;;;;;5079498;28;20453;-76
2022/07/15 01:43:17;;;;;;;5.40;3.60;;;19.50;59.30;;;;;;5084335;28;20476;-73
2022/07/15 01:45:44;;;;;;;6.20;3.90;;;19.40;59.50;;;;;;5070116;28;20549;-73
2022/07/15 01:49:21;;;;;;;4.03;3.27;;;19.40;59.60;;;;;;5078677;28;20176;-74
2022/07/15 01:50:57;;;;;;;14.00;4.10;;;19.30;60.10;;;;;;5079785;28;20414;-74
2022/07/15 01:53:24;;;;;;;5.33;3.77;;;19.30;60.60;;;;;;5065480;28;21004;-75
2022/07/15 01:55:49;;;;;;;8.93;4.53;;;19.20;60.90;;;;;;5083570;28;20418;-74
2022/07/15 01:58:15;;;;;;;6.60;3.83;;;19.10;61.20;;;;;;5084722;28;20424;-75
2022/07/15 02:00:41;;;;;;;5.37;3.77;;;19.00;61.50;;;;;;5089547;28;20193;-77
2022/07/15 02:03:07;;;;;;;6.80;3.70;;;19.00;61.60;;;;;;5082838;28;20213;-72
2022/07/15 02:05:33;;;;;;;5.17;3.50;;;18.90;61.70;;;;;;5099436;28;20436;-73
2022/07/15 02:07:59;;;;;;;4.07;3.30;;;18.90;62.00;;;;;;5085441;28;20543;-75
2022/07/15 02:10:25;;;;;;;4.97;3.90;;;18.80;62.30;;;;;;5086094;28;20421;-74
2022/07/15 02:12:51;;;;;;;5.87;3.47;;;18.70;62.50;;;;;;5063540;28;20175;-74
2022/07/15 02:15:17;;;;;;;7.93;4.50;;;18.70;62.80;;;;;;5084097;28;20429;-74
2022/07/15 02:17:43;;;;;;;8.03;4.03;;;18.70;62.90;;;;;;5077023;28;20272;-76
2022/07/15 02:20:09;;;;;;;7.63;3.67;;;18.70;62.80;;;;;;5083124;28;20520;-73
2022/07/15 02:22:37;;;;;;;5.23;3.80;;;18.60;63.10;;;;;;5088163;28;20204;-74
2022/07/15 02:25:03;;;;;;;5.70;3.83;;;18.60;62.90;;;;;;5089108;28;20479;-74
2022/07/15 02:27:29;;;;;;;5.77;4.07;;;18.50;62.90;;;;;;5081093;28;20838;-74
2022/07/15 02:29:56;;;;;;;6.20;4.00;;;18.40;63.40;;;;;;5084439;28;20513;-75
2022/07/15 02:32:21;;;;;;;6.17;4.30;;;18.30;63.80;;;;;;5080708;28;20177;-75
2022/07/15 02:34:47;;;;;;;6.57;4.20;;;18.30;64.10;;;;;;5088077;28;20510;-75
2022/07/15 02:37:13;;;;;;;11.60;4.37;;;18.20;64.40;;;;;;5082603;28;20182;-74
2022/07/15 02:39:38;;;;;;;9.33;4.23;;;18.20;64.40;;;;;;5088412;28;20211;-73
2022/07/15 02:42:06;;;;;;;7.13;3.60;;;18.20;64.10;;;;;;5085080;28;20201;-75
2022/07/15 02:44:31;;;;;;;4.20;3.43;;;18.30;64.10;;;;;;5081085;28;20248;-73
2022/07/15 02:46:57;;;;;;;8.90;4.40;;;18.20;64.20;;;;;;5086304;28;20483;-73
2022/07/15 02:49:23;;;;;;;5.87;4.00;;;18.10;64.20;;;;;;5080953;28;20224;-72
2022/07/15 02:51:48;;;;;;;7.03;3.60;;;18.10;64.10;;;;;;5078683;28;20183;-73
2022/07/15 02:54:14;;;;;;;4.80;3.10;;;18.10;63.90;;;;;;5080479;28;20458;-74
2022/07/15 02:56:40;;;;;;;6.40;3.57;;;18.10;63.80;;;;;;5087363;28;20243;-74
2022/07/15 02:59:05;;;;;;;5.63;3.30;;;18.00;64.10;;;;;;5089150;28;20185;-72
2022/07/15 03:01:31;;;;;;;5.50;3.70;;;17.90;64.10;;;;;;5086462;28;20255;-74
2022/07/15 03:03:56;;;;;;;8.90;3.77;;;17.90;64.50;;;;;;5082744;28;20249;-72
2022/07/15 03:06:22;;;;;;;6.93;3.30;;;17.90;64.50;;;;;;5086505;28;20637;-74
2022/07/15 03:08:47;;;;;;;5.70;4.07;;;17.80;64.40;;;;;;5079861;28;20228;-72
2022/07/15 03:11:13;;;;;;;3.93;3.20;;;17.80;64.50;;;;;;5082995;28;20191;-73
2022/07/15 03:13:38;;;;;;;4.53;3.30;;;17.80;64.20;;;;;;5085997;28;20555;-74
2022/07/15 03:16:04;;;;;;;4.07;3.50;;;17.80;64.20;;;;;;5067975;28;20180;-74
2022/07/15 03:18:30;;;;;;;6.77;3.60;;;17.80;64.10;;;;;;5082322;28;20711;-73
2022/07/15 03:20:55;;;;;;;5.37;3.57;;;17.80;63.90;;;;;;5088409;28;20332;-73
2022/07/15 03:23:21;;;;;;;4.50;2.90;;;17.70;64.10;;;;;;5081163;28;20275;-73
2022/07/15 03:25:48;;;;;;;7.13;3.53;;;17.70;64.10;;;;;;5084727;28;20211;-74
2022/07/15 03:28:13;;;;;;;3.90;2.90;;;17.70;63.90;;;;;;5091516;28;20171;-73
2022/07/15 03:30:39;;;;;;;6.80;3.20;;;17.70;63.80;;;;;;5091166;28;20420;-72
2022/07/15 03:33:04;;;;;;;5.20;3.63;;;17.80;63.50;;;;;;5083598;28;20673;-73
2022/07/15 03:35:30;;;;;;;7.67;3.57;;;17.70;62.90;;;;;;5091176;28;20184;-73
2022/07/15 03:37:56;;;;;;;5.57;2.90;;;17.70;63.10;;;;;;5084281;28;20270;-72
2022/07/15 03:40:22;;;;;;;6.17;3.30;;;17.60;63.20;;;;;;5084871;28;20257;-71
2022/07/15 03:42:47;;;;;;;6.40;3.33;;;17.50;63.70;;;;;;5060692;28;20206;-72
2022/07/15 03:45:13;;;;;;;7.67;3.63;;;17.50;63.90;;;;;;5085847;28;20264;-73
2022/07/15 03:47:39;;;;;;;4.93;3.30;;;17.40;64.40;;;;;;5083329;28;20175;-73
2022/07/15 03:50:05;;;;;;;8.80;3.07;;;17.40;64.40;;;;;;5083847;28;21586;-73
2022/07/15 03:52:30;;;;;;;8.43;3.50;;;17.50;64.20;;;;;;5083312;28;20192;-74
2022/07/15 03:54:56;;;;;;;8.73;3.60;;;17.60;64.20;;;;;;5079858;28;20485;-72
2022/07/15 03:57:24;;;;;;;8.80;3.90;;;17.60;63.90;;;;;;5082611;28;20276;-73
2022/07/15 03:59:50;;;;;;;8.03;4.00;;;17.50;65.60;;;;;;5088942;28;20208;-74
2022/07/15 04:02:16;;;;;;;4.80;3.67;;;17.50;65.70;;;;;;5081188;28;20527;-73
2022/07/15 04:04:42;;;;;;;5.33;3.70;;;17.60;65.70;;;;;;5058784;28;20474;-73
2022/07/15 04:07:07;;;;;;;8.47;4.27;;;17.50;66.00;;;;;;5082178;28;20220;-74
2022/07/15 04:09:33;;;;;;;5.70;4.03;;;17.40;66.30;;;;;;5082907;28;20233;-71
2022/07/15 04:11:58;;;;;;;4.90;3.27;;;17.40;66.40;;;;;;5084361;28;20196;-73
2022/07/15 04:14:24;;;;;;;10.47;3.90;;;17.50;65.80;;;;;;5061007;28;20289;-73
2022/07/15 04:16:49;;;;;;;4.47;3.57;;;17.50;65.40;;;;;;5084993;28;20236;-73
2022/07/15 04:19:15;;;;;;;6.80;3.90;;;17.50;65.60;;;;;;5078788;28;20197;-72
2022/07/15 04:21:41;;;;;;;6.43;3.67;;;17.50;65.60;;;;;;5081803;28;20351;-73
2022/07/15 04:24:07;;;;;;;8.30;4.10;;;17.50;65.60;;;;;;5077341;28;20636;-73
2022/07/15 04:26:32;;;;;;;11.20;4.03;;;17.50;65.80;;;;;;5083300;28;20194;-75
2022/07/15 04:28:58;;;;;;;6.70;4.00;;;17.50;66.70;;;;;;5084688;28;20217;-74
2022/07/15 04:31:23;;;;;;;4.73;4.20;;;17.60;66.90;;;;;;5087550;28;20175;-74
2022/07/15 04:33:49;;;;;;;11.73;4.23;;;17.60;66.90;;;;;;5083892;28;20210;-74
2022/07/15 04:36:15;;;;;;;7.50;4.33;;;17.70;66.90;;;;;;5081618;28;20176;-72
2022/07/15 04:38:40;;;;;;;6.03;3.40;;;17.70;66.90;;;;;;5061094;28;20528;-71
2022/07/15 04:41:06;;;;;;;7.07;4.30;;;17.80;66.70;;;;;;5085156;28;20565;-71
2022/07/15 04:43:31;;;;;;;4.93;4.00;;;17.80;66.40;;;;;;5084280;28;20206;-73
2022/07/15 04:45:57;;;;;;;6.93;3.60;;;17.80;66.70;;;;;;5086645;28;20571;-74
2022/07/15 04:51:07;;;;;;;4.30;3.40;;;17.80;66.90;;;;;;5082916;28;20195;-72
2022/07/15 04:53:32;;;;;;;9.00;4.27;;;17.90;66.60;;;;;;5083148;28;20825;-73
2022/07/15 04:55:58;;;;;;;6.80;3.77;;;18.00;66.40;;;;;;5085313;28;20222;-72
2022/07/15 04:58:24;;;;;;;8.13;4.13;;;18.10;66.30;;;;;;5079399;28;20198;-73
2022/07/15 05:00:49;;;;;;;5.27;3.87;;;18.20;65.80;;;;;;5085090;28;20193;-73
2022/07/15 05:03:15;;;;;;;8.93;4.07;;;18.30;65.70;;;;;;5078381;28;20302;-75
2022/07/15 05:05:41;;;;;;;7.30;4.13;;;18.30;65.60;;;;;;5075782;28;20184;-72
2022/07/15 05:08:07;;;;;;;10.13;4.10;;;18.30;65.70;;;;;;5085312;28;20195;-74
2022/07/15 05:10:33;;;;;;;5.40;4.10;;;18.40;65.80;;;;;;5084315;28;20440;-74
2022/07/15 05:12:58;;;;;;;7.20;4.00;;;18.40;65.80;;;;;;5085131;28;20530;-73
2022/07/15 05:15:25;;;;;;;7.67;4.70;;;18.40;66.10;;;;;;5073907;28;20195;-74
2022/07/15 05:17:59;;;;;;;9.90;4.37;;;18.50;66.00;;;;;;5097614;27;20521;-74
2022/07/15 05:20:24;;;;;;;8.33;4.53;;;18.60;65.60;;;;;;5092534;28;20558;-74
2022/07/15 05:22:50;;;;;;;5.73;3.83;;;18.70;65.40;;;;;;5087450;28;20177;-73
2022/07/15 05:25:16;;;;;;;10.03;4.40;;;18.70;65.70;;;;;;5078474;28;20179;-73
2022/07/15 05:27:41;;;;;;;11.53;4.57;;;18.70;65.70;;;;;;5080434;28;20183;-74
2022/07/15 05:30:08;;;;;;;9.00;4.77;;;18.70;65.70;;;;;;5083410;28;20606;-74
2022/07/15 05:32:34;;;;;;;9.37;4.40;;;18.80;65.10;;;;;;5083650;28;20187;-73
2022/07/15 05:34:59;;;;;;;8.90;4.83;;;19.00;64.80;;;;;;5080161;28;20821;-73
2022/07/15 05:37:25;;;;;;;15.63;5.07;;;19.00;64.80;;;;;;5084461;28;20650;-73
2022/07/15 05:39:53;;;;;;;9.80;4.77;;;19.00;65.00;;;;;;5087814;28;20248;-72
2022/07/15 05:42:20;;;;;;;9.67;5.40;;;19.10;64.50;;;;;;5082277;28;20205;-74
2022/07/15 05:44:46;;;;;;;10.73;4.67;;;19.10;63.90;;;;;;5084099;28;20459;-73
2022/07/15 05:47:12;;;;;;;7.07;4.90;;;19.10;63.70;;;;;;5081475;28;20863;-75
2022/07/15 05:49:38;;;;;;;8.33;5.50;;;19.20;63.70;;;;;;5084929;28;20417;-74
2022/07/15 05:52:03;;;;;;;8.07;4.77;;;19.30;63.50;;;;;;5079787;28;20259;-74
2022/07/15 05:54:29;;;;;;;7.47;4.73;;;19.30;63.40;;;;;;5078302;28;20217;-72
2022/07/15 05:56:55;;;;;;;9.27;5.10;;;19.40;63.20;;;;;;5083291;28;20218;-73
2022/07/15 05:59:20;;;;;;;9.40;4.60;;;19.40;61.90;;;;;;5080268;28;20229;-73
2022/07/15 06:01:46;;;;;;;7.70;5.40;;;19.40;62.30;;;;;;5081529;28;20186;-74
2022/07/15 06:04:13;;;;;;;6.37;4.00;;;19.50;61.90;;;;;;5077015;28;20353;-71
2022/07/15 06:06:39;;;;;;;8.40;4.73;;;19.50;61.20;;;;;;5081255;28;20443;-76
2022/07/15 06:09:04;;;;;;;6.50;4.47;;;19.50;60.70;;;;;;5081803;28;20422;-76
2022/07/15 06:11:30;;;;;;;8.43;4.17;;;19.50;60.00;;;;;;5086771;28;20239;-75
2022/07/15 06:13:56;;;;;;;8.93;3.60;;;19.40;59.90;;;;;;5087225;28;20699;-75
2022/07/15 06:16:22;;;;;;;7.87;4.67;;;19.40;60.00;;;;;;5080760;28;20232;-76
2022/07/15 06:18:48;;;;;;;5.80;3.50;;;19.40;59.90;;;;;;5084656;28;20191;-76
2022/07/15 06:21:14;;;;;;;12.33;4.10;;;19.50;58.90;;;;;;5086982;28;20270;-77
2022/07/15 06:23:40;;;;;;;7.90;4.00;;;19.60;58.40;;;;;;5079486;28;20524;-76
2022/07/15 06:26:05;;;;;;;8.33;3.93;;;19.80;57.70;;;;;;5084891;28;20439;-76
2022/07/15 06:28:33;;;;;;;6.60;4.40;;;19.80;57.70;;;;;;5071469;28;20665;-76
2022/07/15 06:30:58;;;;;;;6.70;3.77;;;19.80;57.40;;;;;;5074033;28;20443;-77
2022/07/15 06:33:25;;;;;;;5.87;3.90;;;19.80;57.40;;;;;;5069301;28;20469;-77
2022/07/15 06:35:50;;;;;;;6.97;3.77;;;19.80;57.30;;;;;;5069969;28;20195;-76
2022/07/15 06:38:16;;;;;;;7.90;3.40;;;19.90;56.80;;;;;;5066967;28;20425;-77
2022/07/15 06:40:42;;;;;;;8.30;4.13;;;19.90;56.60;;;;;;5068365;28;20178;-77
2022/07/15 06:43:08;;;;;;;8.13;4.00;;;20.00;55.80;;;;;;5073976;28;20187;-76
2022/07/15 06:45:33;;;;;;;6.20;3.77;;;20.00;56.20;;;;;;5071473;28;20424;-77
2022/07/15 06:47:59;;;;;;;8.40;4.97;;;20.10;56.40;;;;;;5064780;28;20622;-76
2022/07/15 06:50:25;;;;;;;5.80;3.80;;;20.10;56.10;;;;;;5071361;28;20185;-76
2022/07/15 06:52:51;;;;;;;9.10;4.27;;;20.20;55.60;;;;;;5069666;28;20427;-75
2022/07/15 06:55:17;;;;;;;7.17;3.77;;;20.20;55.00;;;;;;5066027;28;20236;-75
2022/07/15 06:57:42;;;;;;;7.07;3.63;;;20.30;54.90;;;;;;5064899;28;20548;-75
2022/07/15 07:00:11;;;;;;;9.67;3.90;;;20.30;54.60;;;;;;5067952;28;20182;-73
2022/07/15 07:02:37;;;;;;;9.53;4.37;;;20.40;54.60;;;;;;5063820;28;20274;-74
2022/07/15 07:05:04;;;;;;;4.70;3.50;;;20.40;54.60;;;;;;5064448;28;20464;-73
2022/07/15 07:07:30;;;;;;;6.23;3.47;;;20.40;54.50;;;;;;5067778;28;20940;-74
2022/07/15 07:09:55;;;;;;;11.43;3.70;;;20.40;54.50;;;;;;5066796;28;20424;-75
2022/07/15 07:12:21;;;;;;;5.03;3.00;;;20.30;54.20;;;;;;5060962;28;20232;-75
2022/07/15 07:14:47;;;;;;;9.27;4.10;;;20.40;53.30;;;;;;5066591;28;20674;-75
2022/07/15 07:17:12;;;;;;;5.43;3.30;;;20.50;52.60;;;;;;5068399;28;20244;-76
2022/07/15 07:19:38;;;;;;;4.60;3.27;;;20.70;51.30;;;;;;5063857;28;20605;-72
2022/07/15 07:22:04;;;;;;;5.97;2.70;;;20.70;50.60;;;;;;5064386;28;20261;-74
2022/07/15 07:24:30;;;;;;;7.03;3.23;;;20.80;49.70;;;;;;5067616;28;20285;-73
2022/07/15 07:26:56;;;;;;;3.80;3.20;;;20.90;50.30;;;;;;5069280;28;20196;-74
2022/07/15 07:29:22;;;;;;;10.27;3.30;;;20.90;49.00;;;;;;5069222;28;20487;-74
2022/07/15 07:31:49;;;;;;;6.93;3.50;;;21.00;49.90;;;;;;5061561;28;20243;-73
2022/07/15 07:34:15;;;;;;;7.90;3.77;;;21.00;49.70;;;;;;5066617;28;20673;-72
2022/07/15 07:36:41;;;;;;;5.90;3.13;;;21.10;49.80;;;;;;5066959;28;20506;-74
2022/07/15 07:39:07;;;;;;;4.27;2.83;;;21.20;49.80;;;;;;5066877;28;20439;-73
2022/07/15 07:41:32;;;;;;;7.57;3.20;;;21.20;49.00;;;;;;5066484;28;20186;-74
2022/07/15 07:43:58;;;;;;;4.90;3.30;;;21.20;49.30;;;;;;5066735;28;20229;-73
2022/07/15 07:46:24;;;;;;;6.50;3.93;;;21.30;49.40;;;;;;5062184;28;20228;-73
2022/07/15 07:48:49;;;;;;;8.30;3.90;;;21.40;49.70;;;;;;5070024;28;20687;-73
2022/07/15 07:51:17;;;;;;;5.23;2.43;;;21.50;49.30;;;;;;5069627;28;20203;-73
2022/07/15 07:53:43;;;;;;;9.93;3.40;;;21.50;47.90;;;;;;5063252;28;20285;-73
2022/07/15 07:56:08;;;;;;;6.20;3.23;;;21.50;46.30;;;;;;5065588;28;20955;-74
2022/07/15 07:58:34;;;;;;;5.70;3.30;;;21.40;46.90;;;;;;5067929;28;20178;-74
2022/07/15 08:01:00;;;;;;;5.77;3.13;;;21.40;47.40;;;;;;5067666;28;20201;-74
2022/07/15 08:03:27;;;;;;;4.50;3.17;;;21.40;46.90;;;;;;5060741;28;20251;-74
2022/07/15 08:05:53;;;;;;;4.70;3.13;;;21.50;46.30;;;;;;5065907;28;20187;-74
2022/07/15 08:08:20;;;;;;;6.40;3.07;;;21.50;46.10;;;;;;5069350;28;20440;-74
2022/07/15 08:10:51;;;;;;;5.00;3.00;;;21.60;46.10;;;;;;5069686;28;20830;-75
2022/07/15 08:13:18;;;;;;;5.60;2.90;;;21.70;46.30;;;;;;5059463;28;20456;-73
2022/07/15 08:15:45;;;;;;;7.87;3.50;;;21.80;46.10;;;;;;5067536;28;20478;-75
2022/07/15 08:18:10;;;;;;;7.60;3.03;;;21.90;45.80;;;;;;5062255;28;20940;-74
2022/07/15 08:20:36;;;;;;;5.83;3.03;;;21.90;44.70;;;;;;5065420;28;20462;-74
2022/07/15 08:23:03;;;;;;;4.77;2.30;;;21.80;44.10;;;;;;5066390;28;20319;-75
2022/07/15 08:25:32;;;;;;;6.60;3.23;;;21.70;44.50;;;;;;5058528;28;20598;-73
2022/07/15 08:27:59;;;;;;;5.67;2.73;;;21.70;44.60;;;;;;5064693;28;20433;-75
2022/07/15 08:30:26;;;;;;;6.50;3.10;;;21.70;44.20;;;;;;5067562;28;20892;-73
2022/07/15 08:32:52;;;;;;;4.53;2.33;;;21.80;43.90;;;;;;5063649;28;20896;-73
2022/07/15 08:35:18;;;;;;;11.07;2.90;;;21.90;43.80;;;;;;5056824;28;20447;-73
2022/07/15 08:37:43;;;;;;;3.83;2.73;;;22.00;43.70;;;;;;5067904;28;20559;-74
2022/07/15 08:40:10;;;;;;;7.13;2.73;;;21.90;43.00;;;;;;5066128;28;20551;-73
2022/07/15 08:42:39;;;;;;;4.80;2.97;;;22.00;43.70;;;;;;5066002;28;20189;-73
2022/07/15 08:45:06;;;;;;;4.07;2.93;;;22.00;44.10;;;;;;5063411;28;20467;-73
2022/07/15 08:47:32;;;;;;;6.80;2.77;;;22.10;44.10;;;;;;5066826;28;20514;-73
2022/07/15 08:49:58;;;;;;;5.73;3.10;;;22.00;44.10;;;;;;5066456;28;20872;-73
2022/07/15 08:52:25;;;;;;;5.93;2.70;;;21.90;44.20;;;;;;5059353;28;20498;-73
2022/07/15 08:54:51;;;;;;;5.40;3.23;;;21.90;44.20;;;;;;5053744;28;20211;-72
2022/07/15 08:57:17;;;;;;;3.43;2.73;;;22.00;44.60;;;;;;5065585;28;21067;-73
2022/07/15 08:59:45;;;;;;;4.50;2.90;;;22.00;44.30;;;;;;5064471;28;20420;-74
2022/07/15 09:02:12;;;;;;;4.37;2.93;;;22.10;44.50;;;;;;5063099;28;20431;-74
2022/07/15 09:05:15;;;;;;;4.03;2.90;;;22.00;44.70;;;;;;5066077;28;20847;-74
2022/07/15 09:08:11;;;;;;;4.40;3.07;;;22.10;44.50;;;;;;5064208;28;20421;-74
2022/07/15 09:10:50;;;;;;;6.07;3.27;;;22.30;44.20;;;;;;5064182;28;20441;-75
2022/07/15 09:13:33;;;;;;;8.03;3.93;;;22.30;44.10;;;;;;5062455;28;20472;-75
2022/07/15 09:16:04;;;;;;;6.60;3.40;;;22.20;44.30;;;;;;5063376;28;20484;-74
2022/07/15 09:18:35;;;;;;;13.87;4.60;;;22.20;44.60;;;;;;5055073;28;20577;-75
2022/07/15 09:21:01;;;;;;;7.50;3.50;;;22.40;44.60;;;;;;5067184;28;20524;-74
2022/07/15 09:23:29;;;;;;;6.00;3.60;;;22.50;44.20;;;;;;5057835;28;20489;-74
2022/07/15 09:25:58;;;;;;;4.33;3.50;;;22.60;44.20;;;;;;5067080;28;20452;-73
2022/07/15 09:28:36;;;;;;;8.03;3.67;;;22.60;44.20;;;;;;5059033;28;20410;-75
2022/07/15 09:33:47;;;;;;;6.00;3.50;;;22.80;44.60;;;;;;5062850;28;20913;-74
2022/07/15 09:36:16;;;;;;;6.90;3.67;;;23.00;43.70;;;;;;5058578;28;20533;-73
2022/07/15 09:38:59;;;;;;;7.00;3.70;;;23.10;43.70;;;;;;5062101;28;20421;-74
2022/07/15 09:41:39;;;;;;;5.30;3.37;;;23.10;43.80;;;;;;5054365;28;20416;-73
2022/07/15 09:44:06;;;;;;;6.63;3.70;;;22.90;44.50;;;;;;5066641;28;20653;-73
2022/07/15 09:46:52;;;;;;;7.73;3.40;;;22.80;44.10;;;;;;5061155;28;20443;-76
2022/07/15 09:49:24;;;;;;;5.57;3.40;;;22.70;44.30;;;;;;5062297;28;20419;-73
2022/07/15 09:51:58;;;;;;;5.10;4.27;;;22.70;44.60;;;;;;5060159;28;20806;-73
2022/07/15 09:54:31;;;;;;;4.43;3.20;;;22.80;44.20;;;;;;5066550;28;20473;-73
2022/07/15 09:57:02;;;;;;;10.10;4.30;;;23.00;43.80;;;;;;5055971;28;20464;-77
2022/07/15 09:59:29;;;;;;;5.40;3.33;;;22.90;43.80;;;;;;5061197;28;20441;-73
2022/07/15 10:01:55;;;;;;;6.37;3.07;;;22.90;44.10;;;;;;5058263;28;20500;-75
2022/07/15 10:04:26;;;;;;;5.80;3.47;;;23.10;43.90;;;;;;5070122;28;20466;-75
2022/07/15 10:06:54;;;;;;;5.27;3.40;;;23.30;43.80;;;;;;5072014;28;20785;-76
2022/07/15 10:09:24;;;;;;;6.47;3.30;;;23.30;42.80;;;;;;5066052;28;20518;-74
2022/07/15 10:11:53;;;;;;;5.97;3.30;;;23.30;43.10;;;;;;5071300;28;20439;-76
2022/07/15 10:14:37;;;;;;;8.40;3.37;;;23.60;42.60;;;;;;5065437;28;20471;-76
2022/07/15 10:17:19;;;;;;;9.23;3.40;;;24.20;41.80;;;;;;5070367;28;20480;-76
2022/07/15 10:20:01;;;;;;;7.00;3.37;;;24.50;40.70;;;;;;5068494;28;20468;-76
2022/07/15 10:22:29;;;;;;;6.27;4.20;;;24.40;40.40;;;;;;5065139;28;20471;-74
2022/07/15 10:25:13;;;;;;;5.73;4.20;;;24.50;40.70;;;;;;5068830;28;20468;-74
2022/07/15 10:28:04;;;;;;;6.00;3.30;;;24.90;39.80;;;;;;5061046;28;20793;-74
2022/07/15 10:30:30;;;;;;;6.27;3.43;;;25.20;39.50;;;;;;5070403;28;20416;-75
2022/07/15 10:33:20;;;;;;;6.00;3.53;;;25.00;39.20;;;;;;5061252;28;20427;-75
2022/07/15 10:35:51;;;;;;;5.57;3.60;;;25.00;39.50;;;;;;5068136;28;20202;-75
2022/07/15 10:38:37;;;;;;;9.00;3.80;;;25.10;39.20;;;;;;5062397;28;21060;-75
2022/07/15 10:41:14;;;;;;;6.07;3.73;;;24.70;40.30;;;;;;5068513;28;20936;-76
2022/07/15 10:43:54;;;;;;;5.20;3.60;;;24.60;40.30;;;;;;5059280;28;20488;-75
2022/07/15 10:46:29;;;;;;;5.87;4.00;;;24.60;40.20;;;;;;5068729;28;20615;-76
2022/07/15 10:48:57;;;;;;;6.23;3.30;;;24.50;40.70;;;;;;5074011;28;20564;-75
2022/07/15 10:51:49;;;;;;;3.77;2.90;;;24.60;40.20;;;;;;5074067;28;20427;-74
2022/07/15 10:54:18;;;;;;;9.63;4.00;;;24.90;40.30;;;;;;5063296;28;20974;-75
2022/07/15 10:56:47;;;;;;;4.07;3.30;;;25.60;39.20;;;;;;5058446;28;20476;-76
2022/07/15 10:59:20;;;;;;;5.67;3.30;;;25.90;38.70;;;;;;5070493;28;20453;-77
2022/07/15 11:02:07;;;;;;;9.83;3.57;;;25.60;39.00;;;;;;5062383;28;20421;-75
2022/07/15 11:04:34;;;;;;;11.80;4.40;;;25.80;38.40;;;;;;5064732;28;20472;-75
2022/07/15 11:07:11;;;;;;;6.57;3.60;;;25.50;38.70;;;;;;5067307;28;20813;-74
2022/07/15 11:09:54;;;;;;;3.90;3.60;;;25.40;38.80;;;;;;5070689;28;20473;-75
2022/07/15 11:12:49;;;;;;;8.33;4.40;;;25.60;39.00;;;;;;5069666;28;20541;-74
2022/07/15 11:15:16;;;;;;;4.30;3.50;;;25.80;38.70;;;;;;5064137;28;20479;-76
2022/07/15 11:17:47;;;;;;;5.23;4.13;;;25.60;38.70;;;;;;5062166;28;20468;-74
2022/07/15 11:20:21;;;;;;;9.17;4.70;;;24.60;40.40;;;;;;5065540;28;20780;-75
2022/07/15 11:22:48;;;;;;;3.93;3.30;;;25.00;39.90;;;;;;5062269;28;20533;-75
2022/07/15 11:25:18;;;;;;;8.60;3.87;;;24.90;39.50;;;;;;5064671;28;20462;-74
2022/07/15 11:28:00;;;;;;;4.40;3.30;;;24.80;40.30;;;;;;5068090;28;20859;-73
2022/07/15 11:30:28;;;;;;;5.80;3.83;;;24.80;40.20;;;;;;5051915;28;20421;-75
2022/07/15 11:32:59;;;;;;;5.70;3.50;;;25.30;39.20;;;;;;5062538;28;20441;-75
2022/07/15 11:35:27;;;;;;;6.73;4.33;;;25.50;39.20;;;;;;5068768;28;20495;-75
2022/07/15 11:38:02;;;;;;;5.00;3.53;;;25.60;38.60;;;;;;5066054;28;20460;-74
2022/07/15 11:46:05;;;;;;;6.00;4.30;;;25.20;39.90;;;;;;5066211;28;20424;-76
2022/07/15 11:48:36;;;;;;;9.70;3.57;;;24.90;40.20;;;;;;5052274;28;20959;-75
2022/07/15 11:51:02;;;;;;;10.90;4.60;;;25.00;40.40;;;;;;5069306;28;20550;-75
2022/07/15 11:53:33;;;;;;;10.97;3.67;;;25.30;39.90;;;;;;5059945;28;20552;-73
2022/07/15 11:56:00;;;;;;;9.27;4.77;;;25.70;39.40;;;;;;5063675;28;20283;-75
2022/07/15 11:58:31;;;;;;;9.00;3.90;;;25.60;39.10;;;;;;5064267;28;20923;-74
2022/07/15 12:01:00;;;;;;;9.20;4.50;;;25.50;39.50;;;;;;5067948;28;21209;-74
2022/07/15 12:03:53;;;;;;;6.83;4.43;;;25.60;39.50;;;;;;5065006;28;20476;-75
2022/07/15 12:06:23;;;;;;;5.60;3.80;;;25.60;39.50;;;;;;5062584;28;20637;-76
2022/07/15 12:08:54;;;;;;;6.53;3.90;;;25.50;39.60;;;;;;5067934;28;20467;-74
2022/07/15 12:11:27;;;;;;;8.97;4.30;;;25.30;39.90;;;;;;5060574;28;20418;-73
2022/07/15 12:13:58;;;;;;;4.70;3.77;;;25.10;39.80;;;;;;5061498;28;20493;-74
2022/07/15 12:16:39;;;;;;;5.40;4.30;;;25.20;40.40;;;;;;5065415;28;20998;-75
2022/07/15 12:19:13;;;;;;;6.50;3.77;;;25.90;38.70;;;;;;5065945;28;20413;-73
2022/07/15 12:21:41;;;;;;;6.20;3.90;;;26.40;38.70;;;;;;5055499;28;20924;-76
2022/07/15 12:24:17;;;;;;;23.03;4.93;;;26.70;37.20;;;;;;5064329;28;20488;-75
2022/07/15 12:26:54;;;;;;;7.13;4.43;;;25.40;39.50;;;;;;5062752;28;20465;-75
2022/07/15 12:29:22;;;;;;;7.87;4.57;;;25.50;39.80;;;;;;5061367;28;20429;-76
2022/07/15 12:31:59;;;;;;;5.47;3.60;;;25.80;38.80;;;;;;5062193;28;20467;-75
2022/07/15 12:34:48;;;;;;;6.87;4.50;;;25.80;38.70;;;;;;5066252;28;20830;-73
2022/07/15 12:37:14;;;;;;;7.20;3.80;;;25.60;39.40;;;;;;5059707;28;20497;-75
2022/07/15 12:40:03;;;;;;;9.47;4.30;;;25.00;40.60;;;;;;5064883;28;20440;-74
2022/07/15 12:42:31;;;;;;;6.10;3.67;;;25.10;40.60;;;;;;5061715;28;20452;-75
2022/07/15 12:45:10;;;;;;;9.07;4.10;;;24.90;41.00;;;;;;5064728;28;20472;-76
2022/07/15 12:48:03;;;;;;;4.40;3.40;;;25.00;40.70;;;;;;5068676;28;20431;-75
2022/07/15 12:50:31;;;;;;;4.77;3.83;;;25.40;40.30;;;;;;5064879;28;20419;-77
2022/07/15 12:52:57;;;;;;;5.50;3.70;;;26.30;38.80;;;;;;5066784;28;20776;-73
2022/07/15 12:55:31;;;;;;;7.10;4.23;;;26.80;37.50;;;;;;5068946;28;20471;-75
2022/07/15 12:58:11;;;;;;;9.40;3.90;;;26.90;37.50;;;;;;5066634;28;20469;-74
2022/07/15 13:00:38;;;;;;;7.30;3.80;;;26.80;37.80;;;;;;5069203;28;20796;-74
2022/07/15 13:03:14;;;;;;;4.90;3.63;;;26.50;38.00;;;;;;5064638;28;20447;-73